Time;durP1;ratioP1;P1;durP2;ratioP2;P2;SDS_P1;SDS_P2;PMS_P1;PMS_P2;Temp;Humidity;BMP_temperature;BMP_pressure;BME280_temperature;BME280_humidity;BME280_pressure;Samples;Min_cycle;Max_cycle;Signal;HPM_P1;HPM_P2
2022/05/27 00:01:26;;;;;;;17.10;8.77;;;;;;;15.74;89.99;98233.72;10334762;28;20069;-66
2022/05/27 00:06:26;;;;;;;16.45;9.48;;;;;;;15.65;90.61;98221.63;10335493;28;20076;-66
2022/05/27 00:11:26;;;;;;;19.33;13.02;;;;;;;15.56;90.82;98221.75;10338295;28;20076;-67
2022/05/27 00:16:25;;;;;;;18.30;12.93;;;;;;;15.37;91.41;98215.03;10374010;28;20068;-68
2022/05/27 00:21:26;;;;;;;23.90;14.38;;;;;;;15.25;91.55;98205.59;10371078;28;20080;-66
2022/05/27 00:26:25;;;;;;;24.17;15.20;;;;;;;15.33;92.27;98218.56;10373354;28;20068;-66
2022/05/27 00:31:23;;;;;;;;;;;;;;;15.28;92.25;98216.00;10372834;28;20052;-66
2022/05/27 00:36:22;;;;;;;23.42;13.40;;;;;;;15.24;91.97;98204.72;10359168;28;19952;-66
2022/05/27 00:41:21;;;;;;;;;;;;;;;15.24;92.27;98207.31;10330882;28;20103;-66
2022/05/27 00:46:25;;;;;;;24.98;13.77;;;;;;;15.20;91.93;98202.16;10343567;28;19955;-66
2022/05/27 00:51:30;;;;;;;22.85;15.15;;;;;;;15.06;92.05;98186.66;10372138;28;20056;-66
2022/05/27 00:56:32;;;;;;;25.48;16.42;;;;;;;14.96;92.48;98170.19;10370975;28;20072;-67
2022/05/27 01:01:31;;;;;;;29.63;16.83;;;;;;;15.04;92.76;98191.03;10306585;28;20155;-66
2022/05/27 01:06:30;;;;;;;;;;;;;;;15.08;92.83;98203.16;10292160;28;20037;-66
2022/05/27 01:11:31;;;;;;;27.88;16.58;;;;;;;15.06;93.14;98194.50;10337383;28;19995;-67
2022/05/27 01:16:44;;;;;;;29.08;15.77;;;;;;;15.04;94.04;98196.28;10379413;28;20904;-66
2022/05/27 01:22:07;;;;;;;23.58;15.50;;;;;;;14.91;94.27;98197.28;10370374;28;20080;-66
2022/05/27 01:27:37;;;;;;;22.35;14.68;;;;;;;14.89;94.40;98185.97;10380429;28;20849;-67
2022/05/27 01:33:10;;;;;;;23.55;13.02;;;;;;;14.73;94.98;98186.16;10375903;28;20102;-66
2022/05/27 01:38:22;;;;;;;24.48;14.27;;;;;;;14.67;95.01;98174.88;10354713;28;20080;-66
2022/05/27 01:43:33;;;;;;;23.13;14.43;;;;;;;14.57;94.70;98153.22;10362079;28;20065;-66
2022/05/27 01:49:00;;;;;;;22.58;13.95;;;;;;;14.71;95.00;98181.81;10378777;28;20473;-65
2022/05/27 01:54:41;;;;;;;24.67;13.80;;;;;;;14.58;95.24;98181.06;10357754;28;20104;-66
2022/05/27 02:00:07;;;;;;;26.30;13.55;;;;;;;14.34;95.85;98182.16;10330633;28;20069;-67
2022/05/27 02:05:14;;;;;;;20.27;12.90;;;;;;;14.21;96.23;98176.19;10336793;28;20064;-66
2022/05/27 02:10:23;;;;;;;22.25;12.48;;;;;;;14.14;95.72;98170.13;10338653;28;20088;-67
2022/05/27 02:15:35;;;;;;;17.63;12.13;;;;;;;14.09;95.70;98161.50;10340531;28;20558;-67
2022/05/27 02:20:39;;;;;;;19.90;11.93;;;;;;;14.17;95.38;98177.06;10380463;28;20088;-67
2022/05/27 02:25:43;;;;;;;24.15;12.35;;;;;;;14.09;95.31;98163.25;10381440;28;20056;-67
2022/05/27 02:30:47;;;;;;;20.98;12.48;;;;;;;14.09;95.53;98181.50;10378089;28;20071;-67
2022/05/27 02:35:48;;;;;;;22.33;13.93;;;;;;;14.05;95.92;98180.66;10375723;28;20496;-66
2022/05/27 02:40:59;;;;;;;25.65;14.25;;;;;;;14.00;96.18;98185.03;10345905;28;20056;-66
2022/05/27 02:46:32;;;;;;;22.00;13.18;;;;;;;13.83;96.40;98179.09;10380108;28;20526;-67
2022/05/27 02:51:57;;;;;;;20.55;12.85;;;;;;;13.69;97.06;98187.03;10337622;28;20515;-67
2022/05/27 02:57:40;;;;;;;25.38;13.18;;;;;;;13.53;97.36;98184.47;10282391;28;20081;-66
2022/05/27 03:02:40;;;;;;;20.38;12.02;;;;;;;13.43;97.28;98163.69;10342086;28;20080;-66
2022/05/27 03:08:27;;;;;;;23.15;13.32;;;;;;;13.57;97.30;98188.81;10377879;28;20141;-67
2022/05/27 03:13:41;;;;;;;23.88;13.48;;;;;;;13.66;97.17;98187.06;10373130;28;20068;-67
2022/05/27 03:18:53;;;;;;;22.70;13.45;;;;;;;13.77;96.74;98186.09;10376195;28;20091;-67
2022/05/27 03:24:07;;;;;;;21.55;13.45;;;;;;;13.85;96.66;98190.41;10293762;28;20069;-67
2022/05/27 03:29:28;;;;;;;28.38;14.55;;;;;;;13.93;96.26;98191.19;10294667;28;20583;-67
2022/05/27 03:34:31;;;;;;;26.90;14.80;;;;;;;14.02;96.40;98190.25;10361472;28;20064;-67
2022/05/27 03:39:34;;;;;;;28.08;16.15;;;;;;;14.12;96.15;98190.16;10339175;28;20065;-67
2022/05/27 03:44:34;;;;;;;32.38;15.82;;;;;;;14.23;95.91;98199.66;10359776;28;20849;-67
2022/05/27 03:49:33;;;;;;;25.77;15.18;;;;;;;14.32;95.88;98197.84;10374646;28;20079;-67
2022/05/27 03:54:32;;;;;;;31.88;17.80;;;;;;;14.20;95.70;98169.25;10345656;28;20041;-67
2022/05/27 03:59:31;;;;;;;31.25;17.88;;;;;;;14.22;95.63;98162.25;10333428;28;20076;-67
2022/05/27 04:04:30;;;;;;;29.73;16.92;;;;;;;14.55;95.58;98197.63;10358274;28;20040;-67
2022/05/27 04:09:29;;;;;;;;;;;;;;;14.68;95.47;98197.50;10374787;28;20068;-67
2022/05/27 04:14:28;;;;;;;30.97;17.73;;;;;;;14.63;95.25;98172.28;10355546;28;19956;-67
2022/05/27 04:19:27;;;;;;;;;;;;;;;14.89;95.17;98204.28;10374148;28;20868;-67
2022/05/27 04:24:26;;;;;;;31.23;18.05;;;;;;;14.95;94.96;98192.00;10373910;28;20486;-67
2022/05/27 04:29:25;;;;;;;;;;;;;;;15.16;95.00;98213.56;10371239;28;20069;-67
2022/05/27 04:34:24;;;;;;;25.85;16.02;;;;;;;15.27;94.50;98209.03;10373318;28;19952;-67
2022/05/27 04:39:23;;;;;;;24.63;15.43;;;;;;;15.34;94.10;98196.75;10346584;28;20128;-67
2022/05/27 04:44:22;;;;;;;28.60;15.90;;;;;;;15.43;93.68;98194.88;10326080;28;20030;-67
2022/05/27 04:54:38;;;;;;;21.13;13.63;;;;;;;15.91;92.85;98214.31;10301121;28;20351;-67
2022/05/27 04:59:39;;;;;;;;;;;;;;;16.03;91.22;98206.28;10320340;28;20377;-67
2022/05/27 05:04:38;;;;;;;19.52;13.27;;;;;;;16.06;91.03;98212.31;10360920;28;19944;-67
2022/05/27 05:09:38;;;;;;;;;;;;;;;16.19;90.44;98205.13;10381304;28;20052;-67
2022/05/27 05:14:37;;;;;;;20.13;12.20;;;;;;;16.12;90.21;98203.50;10356978;28;19968;-66
2022/05/27 05:19:36;;;;;;;;;;;;;;;16.40;90.19;98201.28;10308762;28;20093;-67
2022/05/27 05:24:34;;;;;;;20.30;11.37;;;;;;;16.51;89.05;98204.59;10330889;28;19967;-66
2022/05/27 05:29:33;;;;;;;;;;;;;;;16.74;89.05;98205.91;10383324;28;20032;-67
2022/05/27 05:34:32;;;;;;;18.60;11.57;;;;;;;16.65;88.41;98188.63;10372660;28;20365;-67
2022/05/27 05:39:31;;;;;;;17.60;10.65;;;;;;;17.03;88.01;98205.41;10321550;28;20136;-67
2022/05/27 05:44:30;;;;;;;;;;;;;;;17.30;86.85;98193.47;10338803;28;20152;-67
2022/05/27 05:49:29;;;;;;;14.37;10.43;;;;;;;17.40;85.31;98180.16;10355758;28;20067;-67
2022/05/27 05:54:29;;;;;;;17.27;10.73;;;;;;;17.65;85.22;98183.13;10301287;28;20077;-67
2022/05/27 05:59:30;;;;;;;16.00;10.38;;;;;;;17.82;83.42;98188.00;10336233;28;20530;-67
2022/05/27 06:04:29;;;;;;;15.50;10.07;;;;;;;17.71;82.40;98159.38;10360447;28;20057;-67
2022/05/27 06:09:28;;;;;;;15.20;9.95;;;;;;;17.91;82.65;98177.28;10336040;28;20022;-67
2022/05/27 06:14:28;;;;;;;15.50;10.40;;;;;;;18.25;81.33;98184.38;10377117;28;20887;-67
2022/05/27 06:19:27;;;;;;;14.07;8.70;;;;;;;18.43;80.81;98188.28;10377719;28;20087;-68
2022/05/27 06:24:26;;;;;;;15.38;8.57;;;;;;;18.63;79.73;98188.63;10358895;28;20112;-68
2022/05/27 06:34:42;;;;;;;11.45;7.38;;;;;;;19.09;76.74;98157.56;10362982;28;20068;-69
2022/05/27 06:39:42;;;;;;;12.15;6.53;;;;;;;19.33;74.77;98156.03;10338787;28;20069;-69
2022/05/27 06:44:41;;;;;;;11.75;6.57;;;;;;;19.74;70.39;98180.22;10334993;28;20065;-68
2022/05/27 06:49:44;;;;;;;10.25;4.78;;;;;;;19.83;66.56;98170.25;10349352;28;20088;-69
2022/05/27 06:54:43;;;;;;;8.43;4.82;;;;;;;19.93;64.95;98159.44;10367058;28;20072;-69
2022/05/27 06:59:42;;;;;;;8.35;4.13;;;;;;;20.13;62.57;98157.03;10375811;28;20068;-69
2022/05/27 07:04:41;;;;;;;9.20;3.72;;;;;;;19.91;61.24;98146.34;10355210;28;20052;-69
2022/05/27 07:09:40;;;;;;;8.07;3.90;;;;;;;20.26;61.85;98166.25;10353890;28;20073;-69
2022/05/27 07:14:39;;;;;;;7.32;4.40;;;;;;;20.41;59.72;98148.22;10375904;28;20098;-69
2022/05/27 07:19:39;;;;;;;9.52;4.20;;;;;;;20.70;60.46;98163.91;10372118;28;20056;-69
2022/05/27 07:24:39;;;;;;;6.00;3.63;;;;;;;20.75;58.17;98157.56;10374759;28;20072;-69
2022/05/27 07:29:38;;;;;;;6.38;3.70;;;;;;;21.00;57.04;98123.25;10375233;28;20076;-69
2022/05/27 07:34:38;;;;;;;6.10;3.08;;;;;;;21.30;56.59;98110.72;10361647;28;20100;-69
2022/05/27 07:39:37;;;;;;;6.28;3.42;;;;;;;21.21;53.88;98085.53;10331957;28;20084;-69
2022/05/27 07:44:36;;;;;;;5.35;3.50;;;;;;;21.62;54.43;98124.44;10331036;28;20035;-69
2022/05/27 07:49:35;;;;;;;4.57;3.00;;;;;;;21.67;52.49;98115.41;10332594;28;20033;-69
2022/05/27 07:54:34;;;;;;;6.10;3.25;;;;;;;21.78;52.42;98112.34;10333214;28;20506;-69
2022/05/27 07:59:33;;;;;;;7.00;3.67;;;;;;;;;;10366235;28;20061;-69
2022/05/27 08:04:32;;;;;;;6.63;3.38;;;;;;;21.75;52.13;98046.41;10326056;28;20108;-69
2022/05/27 08:09:31;;;;;;;6.00;3.13;;;;;;;22.32;51.03;98108.34;10347596;28;20488;-69
2022/05/27 08:14:30;;;;;;;4.70;3.55;;;;;;;22.46;51.84;98104.22;10323291;28;20481;-69
2022/05/27 08:19:29;;;;;;;6.72;3.45;;;;;;;22.65;51.91;98091.03;10333403;28;20536;-69
2022/05/27 08:24:29;;;;;;;6.35;3.50;;;;;;;22.62;52.12;98097.31;10373529;28;20096;-69
2022/05/27 08:29:29;;;;;;;4.75;3.45;;;;;;;22.75;51.25;98084.47;10357798;28;20061;-69
2022/05/27 08:39:46;;;;;;;4.88;3.10;;;;;;;22.64;49.15;98061.09;10345813;28;20125;-69
2022/05/27 08:44:51;;;;;;;4.03;2.78;;;;;;;22.92;48.87;98075.75;10330657;28;20469;-69
2022/05/27 08:50:10;;;;;;;4.38;2.85;;;;;;;22.90;47.42;98072.31;10331990;28;20076;-68
2022/05/27 09:00:51;;;;;;;3.63;2.75;;;;;;;22.97;47.25;98063.16;10291096;28;20069;-69
2022/05/27 09:05:59;;;;;;;3.60;2.78;;;;;;;23.06;47.30;98064.53;10299617;28;20029;-69
2022/05/27 09:11:22;;;;;;;5.43;2.87;;;;;;;23.10;47.49;98052.88;10365654;28;21467;-69
2022/05/27 09:16:37;;;;;;;5.57;2.95;;;;;;;23.36;46.51;98056.94;10330919;28;20088;-69
2022/05/27 09:22:15;;;;;;;4.22;3.00;;;;;;;23.44;45.29;98046.81;10361521;28;20092;-69
2022/05/27 09:27:26;;;;;;;3.42;3.00;;;;;;;23.52;46.42;98039.38;10369323;28;20072;-69
2022/05/27 09:32:27;;;;;;;4.63;2.78;;;;;;;23.77;46.08;98043.47;10337520;28;20064;-69
2022/05/27 09:37:34;;;;;;;3.60;2.72;;;;;;;23.98;45.58;98036.22;10327935;28;20113;-69
2022/05/27 09:42:42;;;;;;;5.68;2.80;;;;;;;24.04;44.76;98027.97;10328650;28;20072;-69
2022/05/27 09:47:42;;;;;;;4.88;3.00;;;;;;;24.26;45.40;98015.34;10331019;28;20069;-69
2022/05/27 09:52:42;;;;;;;5.65;2.70;;;;;;;23.99;44.51;97948.66;10328439;28;20069;-70
2022/05/27 09:57:55;;;;;;;6.13;2.40;;;;;;;24.43;43.43;98013.59;10333959;28;20064;-69
2022/05/27 10:02:54;;;;;;;3.58;2.20;;;;;;;24.27;41.46;97997.63;10366300;28;20064;-69
2022/05/27 10:07:57;;;;;;;3.42;2.30;;;;;;;24.23;41.06;97999.56;10327233;28;20049;-69
2022/05/27 10:13:12;;;;;;;4.15;1.88;;;;;;;24.53;40.92;97992.75;10354136;28;20095;-69
2022/05/27 10:18:24;;;;;;;2.63;1.92;;;;;;;24.61;38.67;97987.88;10380826;28;20088;-69
2022/05/27 10:23:35;;;;;;;2.45;2.05;;;;;;;24.53;38.23;97963.56;10355791;28;20072;-69
2022/05/27 10:28:34;;;;;;;4.30;2.10;;;;;;;24.84;38.58;97979.50;10339693;28;20076;-69
2022/05/27 10:33:43;;;;;;;3.22;1.70;;;;;;;25.17;37.96;97975.91;10348244;28;20033;-69
2022/05/27 10:38:58;;;;;;;1.98;1.70;;;;;;;25.19;38.10;97963.41;10350579;28;20076;-69
2022/05/27 10:44:07;;;;;;;2.10;1.85;;;;;;;25.38;37.96;97973.00;10338676;28;20079;-69
2022/05/27 10:49:24;;;;;;;2.88;1.85;;;;;;;25.35;37.27;97949.25;10355008;28;20539;-70
2022/05/27 10:54:40;;;;;;;2.97;1.70;;;;;;;25.68;37.79;97960.59;10362120;28;20503;-70
2022/05/27 11:05:14;;;;;;;3.55;2.25;;;;;;;25.92;35.76;97936.16;10377317;28;20064;-70
2022/05/27 11:10:37;;;;;;;4.05;1.90;;;;;;;25.70;35.41;97904.69;10378214;28;20068;-69
2022/05/27 11:15:51;;;;;;;1.60;1.50;;;;;;;25.93;34.93;97930.75;10373419;28;20088;-70
2022/05/27 11:21:08;;;;;;;5.95;1.75;;;;;;;25.68;35.62;97919.88;10350392;28;20080;-70
2022/05/27 11:26:43;;;;;;;2.97;1.83;;;;;;;25.92;36.58;97905.09;10334601;28;20065;-70
2022/05/27 11:32:01;;;;;;;3.28;1.83;;;;;;;26.05;35.68;97886.59;10318913;28;20084;-70
2022/05/27 11:37:19;;;;;;;2.10;1.90;;;;;;;26.25;36.09;97879.19;10358726;28;20080;-70
2022/05/27 11:42:55;;;;;;;3.83;1.90;;;;;;;26.46;35.80;97884.97;10331591;28;20072;-70
2022/05/27 11:48:02;;;;;;;1.98;1.88;;;;;;;26.58;34.26;97876.19;10331379;28;20068;-70
2022/05/27 11:53:27;;;;;;;2.30;2.10;;;;;;;26.73;34.32;97875.22;10332799;28;20064;-70
2022/05/27 11:58:43;;;;;;;2.80;1.95;;;;;;;26.80;34.33;97862.38;10317364;28;20094;-70
2022/05/27 12:03:59;;;;;;;2.47;2.00;;;;;;;26.56;34.47;97847.03;10297280;28;20072;-70
2022/05/27 12:09:06;;;;;;;2.50;2.00;;;;;;;26.76;35.05;97842.22;10291808;28;20460;-70
2022/05/27 12:14:14;;;;;;;2.90;1.70;;;;;;;27.14;33.90;97825.53;10369510;28;20060;-70
2022/05/27 12:19:32;;;;;;;3.08;1.70;;;;;;;27.16;33.18;97834.25;10372572;28;20103;-70
2022/05/27 12:24:41;;;;;;;2.40;2.20;;;;;;;27.21;33.33;97826.81;10370692;28;20205;-70
2022/05/27 12:29:43;;;;;;;2.17;1.90;;;;;;;27.15;32.72;97808.59;10372873;28;20075;-70
2022/05/27 12:34:44;;;;;;;3.05;1.90;;;;;;;27.32;34.11;97810.09;10369714;28;20079;-70
2022/05/27 12:39:46;;;;;;;1.92;1.70;;;;;;;27.22;33.35;97806.38;10336160;28;20080;-70
2022/05/27 12:44:48;;;;;;;2.35;1.88;;;;;;;27.01;33.43;97787.38;10329955;28;20112;-71
2022/05/27 12:50:09;;;;;;;3.83;1.90;;;;;;;27.30;33.41;97794.22;10335476;28;20068;-71
2022/05/27 12:55:13;;;;;;;2.97;2.20;;;;;;;27.32;33.27;97796.78;10350103;28;20500;-71
2022/05/27 13:06:22;;;;;;;4.00;1.73;;;;;;;27.39;33.20;97776.75;10366329;28;20465;-71
2022/05/27 13:11:21;;;;;;;5.30;1.80;;;;;;;27.33;33.29;97772.72;10345514;28;20188;-71
2022/05/27 13:16:33;;;;;;;2.10;1.90;;;;;;;27.38;32.46;97759.06;10368002;28;20041;-71
2022/05/27 13:21:46;;;;;;;3.17;2.00;;;;;;;27.61;32.74;97739.69;10376993;28;20088;-71
2022/05/27 13:26:49;;;;;;;4.93;2.03;;;;;;;27.35;32.75;97744.16;10377827;28;20088;-71
2022/05/27 13:31:51;;;;;;;4.20;1.98;;;;;;;27.30;32.49;97730.25;10296957;28;20065;-71
2022/05/27 13:36:58;;;;;;;4.63;2.15;;;;;;;27.37;32.58;97728.03;10345211;28;20058;-71
2022/05/27 13:41:57;;;;;;;2.55;1.85;;;;;;;27.30;31.69;97713.44;10337483;28;20068;-71
2022/05/27 13:46:58;;;;;;;3.03;1.85;;;;;;;27.35;32.67;97706.84;10336898;28;20531;-71
2022/05/27 13:52:00;;;;;;;3.38;2.10;;;;;;;27.62;31.96;97719.19;10349033;28;20068;-71
2022/05/27 13:57:05;;;;;;;4.43;2.33;;;;;;;27.84;32.20;97705.16;10378340;28;20064;-71
2022/05/27 14:02:16;;;;;;;3.33;2.10;;;;;;;28.12;32.11;97704.03;10379532;28;20064;-70
2022/05/27 14:07:29;;;;;;;4.45;2.20;;;;;;;28.20;31.11;97701.69;10375285;28;20511;-70
2022/05/27 14:12:34;;;;;;;2.75;1.88;;;;;;;28.10;32.19;97694.44;10349911;28;20073;-71
2022/05/27 14:17:40;;;;;;;3.50;2.20;;;;;;;28.16;31.74;97692.19;10359057;28;21032;-71
2022/05/27 14:22:49;;;;;;;2.50;1.88;;;;;;;28.07;31.54;97690.19;10376230;28;20138;-71
2022/05/27 14:27:53;;;;;;;3.97;2.38;;;;;;;27.93;32.50;97680.50;10374397;28;20527;-71
2022/05/27 14:32:52;;;;;;;3.75;2.03;;;;;;;27.80;32.00;97655.72;10378190;28;20139;-71
2022/05/27 14:38:00;;;;;;;3.17;2.35;;;;;;;27.97;32.22;97659.81;10355732;28;20069;-70
2022/05/27 14:43:00;;;;;;;1.90;1.80;;;;;;;27.95;32.18;97648.41;10310129;28;20143;-71
2022/05/27 14:47:59;;;;;;;2.05;1.95;;;;;;;27.79;31.86;97616.66;10294568;28;20100;-71
2022/05/27 14:53:01;;;;;;;2.95;1.85;;;;;;;27.76;32.71;97630.22;10359630;28;20042;-71
2022/05/27 14:58:04;;;;;;;4.13;1.95;;;;;;;27.72;31.74;97610.06;10370676;28;20069;-71
2022/05/27 15:03:26;;;;;;;5.47;2.35;;;;;;;27.58;31.63;97595.94;10373755;28;20484;-70
2022/05/27 15:08:31;;;;;;;2.33;2.08;;;;;;;27.60;32.16;97607.34;10376584;28;20083;-71
2022/05/27 15:13:46;;;;;;;4.30;2.20;;;;;;;27.36;32.16;97601.09;10355724;28;20080;-71
2022/05/27 15:19:00;;;;;;;3.50;2.25;;;;;;;27.19;32.55;97599.66;10347771;28;20477;-70
2022/05/27 15:24:06;;;;;;;2.75;2.10;;;;;;;27.17;33.35;97596.22;10350073;28;20473;-71
2022/05/27 15:34:34;;;;;;;2.50;2.20;;;;;;;27.26;32.76;97598.25;10330925;28;20065;-70
2022/05/27 15:39:33;;;;;;;4.35;2.20;;;;;;;27.36;33.16;97601.94;10333459;28;20523;-70
2022/05/27 15:44:31;;;;;;;3.88;2.03;;;;;;;27.29;33.19;97584.69;10334004;28;20711;-70
2022/05/27 15:49:30;;;;;;;5.38;2.15;;;;;;;27.37;33.24;97582.31;10359080;28;20024;-70
2022/05/27 15:54:29;;;;;;;2.45;2.05;;;;;;;27.54;33.74;97581.16;10374571;28;20021;-70
2022/05/27 15:59:28;;;;;;;3.08;2.30;;;;;;;27.42;33.09;97566.88;10372199;28;20120;-70
2022/05/27 16:04:27;;;;;;;3.72;2.35;;;;;;;27.14;33.71;97575.13;10374342;28;20028;-70
2022/05/27 16:09:26;;;;;;;3.35;2.25;;;;;;;26.62;35.32;97566.28;10373042;28;20403;-70
2022/05/27 16:14:26;;;;;;;4.95;2.40;;;;;;;26.38;35.95;97550.22;10353668;28;20528;-70
2022/05/27 16:19:25;;;;;;;3.13;2.25;;;;;;;26.38;35.63;97571.50;10322848;28;20065;-70
2022/05/27 16:24:24;;;;;;;2.70;2.42;;;;;;;26.19;36.39;97560.38;10332363;28;20029;-69
2022/05/27 16:29:23;;;;;;;4.18;2.40;;;;;;;26.17;36.55;97549.84;10329695;28;20566;-70
2022/05/27 16:34:22;;;;;;;3.42;2.20;;;;;;;26.00;37.50;97561.63;10346627;28;20044;-70
2022/05/27 16:39:21;;;;;;;2.47;2.20;;;;;;;25.98;37.69;97566.19;10337026;28;20448;-70
2022/05/27 16:44:21;;;;;;;4.65;2.60;;;;;;;25.79;38.17;97545.28;10365998;28;20391;-69
2022/05/27 16:49:21;;;;;;;3.05;2.40;;;;;;;25.78;38.28;97554.19;10381468;28;20060;-69
2022/05/27 16:54:20;;;;;;;6.50;2.80;;;;;;;25.84;39.17;97556.47;10377964;28;20882;-69
2022/05/27 16:59:20;;;;;;;6.55;3.08;;;;;;;25.91;39.99;97568.41;10375476;28;20075;-70
2022/05/27 17:04:19;;;;;;;5.32;2.85;;;;;;;25.86;41.34;97551.91;10344269;28;20467;-70
2022/05/27 17:09:18;;;;;;;4.30;3.05;;;;;;;25.87;41.61;97560.72;10374917;28;20534;-69
2022/05/27 17:14:17;;;;;;;6.70;3.35;;;;;;;25.68;42.80;97547.78;10381076;28;20032;-69
2022/05/27 17:19:16;;;;;;;5.82;2.90;;;;;;;25.31;43.14;97548.34;10377600;28;20147;-69
2022/05/27 17:24:15;;;;;;;3.80;2.85;;;;;;;25.04;43.81;97543.00;10364239;28;20046;-69
2022/05/27 17:29:14;;;;;;;6.72;3.00;;;;;;;24.91;44.16;97557.97;10300252;28;20049;-69
2022/05/27 17:34:15;;;;;;;6.85;3.10;;;;;;;24.63;44.86;97556.13;10365328;28;20071;-69
2022/05/27 17:39:16;;;;;;;5.93;3.47;;;;;;;24.24;45.72;97549.66;10347140;28;20060;-69
2022/05/27 17:44:16;;;;;;;5.70;3.33;;;;;;;23.91;46.82;97550.69;10365477;28;20069;-69
2022/05/27 17:54:34;;;;;;;4.78;3.08;;;;;;;23.27;48.72;97539.25;10370465;28;20072;-68
2022/05/27 17:59:34;;;;;;;7.25;3.80;;;;;;;22.90;49.67;97532.50;10377268;28;20096;-68
2022/05/27 18:04:34;;;;;;;6.75;3.72;;;;;;;22.72;50.64;97537.81;10375720;28;20057;-68
2022/05/27 18:09:33;;;;;;;5.93;3.90;;;;;;;22.26;52.12;97513.81;10378773;28;20072;-68
2022/05/27 18:14:32;;;;;;;5.20;2.88;;;;;;;22.10;52.49;97536.66;10376417;28;20093;-68
2022/05/27 18:19:31;;;;;;;5.45;3.42;;;;;;;21.89;53.29;97562.34;10377601;28;20049;-69
2022/05/27 18:24:31;;;;;;;7.95;3.45;;;;;;;21.62;53.69;97541.66;10378363;28;20470;-69
2022/05/27 18:29:31;;;;;;;8.18;3.60;;;;;;;21.51;54.13;97544.81;10348255;28;20072;-68
2022/05/27 18:34:30;;;;;;;9.70;4.65;;;;;;;21.31;55.34;97551.06;10376342;28;20072;-68
2022/05/27 18:39:29;;;;;;;7.88;4.35;;;;;;;21.26;56.23;97570.69;10348936;28;20091;-68
2022/05/27 18:44:28;;;;;;;7.03;3.95;;;;;;;20.78;57.06;97513.97;10377759;28;20063;-68
2022/05/27 18:49:28;;;;;;;7.25;4.18;;;;;;;20.90;58.48;97580.19;10376814;28;20036;-68
2022/05/27 18:54:27;;;;;;;9.15;3.58;;;;;;;20.63;58.74;97563.84;10371040;28;20862;-67
2022/05/27 18:59:26;;;;;;;5.82;3.63;;;;;;;20.68;59.12;97580.31;10376738;28;20396;-68
2022/05/27 19:04:27;;;;;;;8.02;4.07;;;;;;;20.59;59.32;97580.72;10373616;28;20072;-68
2022/05/27 19:09:26;;;;;;;6.93;4.05;;;;;;;20.41;59.16;97569.19;10365845;28;20128;-68
2022/05/27 19:14:26;;;;;;;7.22;4.53;;;;;;;20.39;59.27;97568.38;10334936;28;20041;-68
2022/05/27 19:24:42;;;;;;;12.70;5.22;;;;;;;20.16;61.60;97560.59;10374837;28;20052;-68
2022/05/27 19:29:43;;;;;;;13.40;5.53;;;;;;;20.24;61.69;97574.31;10319131;28;20120;-68
2022/05/27 19:34:43;;;;;;;13.73;5.60;;;;;;;20.05;62.37;97553.16;10293378;28;20069;-68
2022/05/27 19:39:42;;;;;;;9.23;5.65;;;;;;;20.04;62.41;97561.97;10342560;28;20068;-68
2022/05/27 19:44:40;;;;;;;7.45;4.35;;;;;;;20.00;62.84;97571.81;10374766;28;20104;-69
2022/05/27 19:49:39;;;;;;;10.20;4.50;;;;;;;19.90;62.60;97564.34;10374324;28;20025;-68
2022/05/27 19:54:41;;;;;;;7.60;4.45;;;;;;;19.91;62.63;97581.84;10339897;28;20560;-68
2022/05/27 19:59:42;;;;;;;5.78;3.53;;;;;;;19.67;63.02;97560.88;10331291;28;20080;-68
2022/05/27 20:04:58;;;;;;;4.72;3.40;;;;;;;19.56;62.73;97565.72;10350101;28;20063;-68
2022/05/27 20:09:59;;;;;;;7.55;5.10;;;;;;;19.50;63.17;97581.72;10373892;28;20068;-68
2022/05/27 20:14:59;;;;;;;12.27;6.43;;;;;;;19.32;64.92;97580.66;10370198;28;20488;-68
2022/05/27 20:19:58;;;;;;;7.80;4.78;;;;;;;19.07;66.24;97557.94;10374023;28;20084;-68
2022/05/27 20:24:57;;;;;;;9.27;5.10;;;;;;;18.78;66.81;97556.41;10363114;28;20028;-68
2022/05/27 20:29:56;;;;;;;8.43;5.15;;;;;;;18.71;67.37;97549.66;10332688;28;20769;-68
2022/05/27 20:34:55;;;;;;;10.15;5.70;;;;;;;18.80;67.49;97563.31;10331965;28;20464;-68
2022/05/27 20:39:54;;;;;;;9.23;4.72;;;;;;;18.54;68.79;97542.38;10361038;28;20067;-68
2022/05/27 20:44:55;;;;;;;9.73;4.47;;;;;;;18.53;69.36;97562.53;10373450;28;20092;-68
2022/05/27 20:49:54;;;;;;;8.60;4.85;;;;;;;18.06;70.25;97494.16;10369956;28;20072;-68
2022/05/27 20:54:53;;;;;;;9.40;4.75;;;;;;;18.31;70.37;97551.06;10371801;28;20068;-68
2022/05/27 20:59:52;;;;;;;9.98;4.60;;;;;;;18.18;70.11;97527.88;10370179;28;20108;-68
2022/05/27 21:04:51;;;;;;;8.93;4.80;;;;;;;18.27;70.70;97552.97;10373675;28;20096;-68
2022/05/27 21:09:51;;;;;;;11.65;4.82;;;;;;;18.14;71.26;97549.88;10372960;28;20759;-68
2022/05/27 21:14:50;;;;;;;69.85;53.00;;;;;;;18.06;71.70;97541.44;10370059;28;20087;-68
2022/05/27 21:19:49;;;;;;;34.55;26.80;;;;;;;18.00;71.21;97536.38;10344205;28;20130;-68
2022/05/27 21:24:48;;;;;;;15.20;9.63;;;;;;;17.68;71.42;97484.94;10334292;28;20033;-68
2022/05/27 21:29:47;;;;;;;10.27;6.38;;;;;;;17.81;71.58;97520.41;10339519;28;20104;-68
2022/05/27 21:34:46;;;;;;;10.35;5.50;;;;;;;17.72;71.73;97521.53;10371546;28;20084;-68
2022/05/27 21:39:45;;;;;;;9.40;4.97;;;;;;;17.72;71.90;97521.53;10341383;28;20029;-68
2022/05/27 21:44:44;;;;;;;;;;;;;;;17.73;72.10;97523.25;10351678;28;20510;-68
2022/05/27 21:49:44;;;;;;;13.63;5.33;;;;;;;17.59;72.71;97499.25;10379766;28;19981;-68
2022/05/27 21:54:43;;;;;;;9.45;5.40;;;;;;;17.61;72.73;97492.16;10378619;28;20052;-68
2022/05/27 21:59:42;;;;;;;8.57;5.55;;;;;;;17.47;73.29;97486.53;10371295;28;20068;-68
2022/05/27 22:04:40;;;;;;;8.75;5.40;;;;;;;17.46;73.55;97490.06;10338412;28;20026;-68
2022/05/27 22:14:58;;;;;;;7.55;5.18;;;;;;;17.24;73.94;97456.66;10378329;28;19975;-68
2022/05/27 22:19:57;;;;;;;9.73;5.50;;;;;;;17.20;74.73;97455.06;10363419;28;20092;-68
2022/05/27 22:24:56;;;;;;;10.60;5.20;;;;;;;17.09;74.99;97457.16;10333722;28;20030;-68
2022/05/27 22:29:55;;;;;;;;;;;;;;;17.18;74.95;97467.34;10336966;28;20026;-68
2022/05/27 22:34:55;;;;;;;14.25;9.93;;;;;;;17.12;75.33;97457.03;10366938;28;19963;-69
2022/05/27 22:39:58;;;;;;;16.50;12.32;;;;;;;17.10;75.70;97458.88;10338396;28;20060;-68
2022/05/27 22:44:57;;;;;;;14.73;10.02;;;;;;;17.00;75.81;97442.56;10353627;28;20475;-68
2022/05/27 22:49:56;;;;;;;;;;;;;;;16.98;77.37;97462.75;10377404;28;20494;-68
2022/05/27 22:54:55;;;;;;;27.57;18.97;;;;;;;16.67;79.32;97441.81;10373825;28;19971;-68
2022/05/27 22:59:54;;;;;;;21.45;14.18;;;;;;;16.63;78.79;97427.97;10374346;28;20071;-68
2022/05/27 23:04:53;;;;;;;;;;;;;;;16.63;78.84;97416.63;10376173;28;20021;-68
2022/05/27 23:09:51;;;;;;;21.40;12.90;;;;;;;16.61;78.92;97405.34;10369976;28;19909;-68
2022/05/27 23:20:11;;;;;;;17.48;11.75;;;;;;;16.24;79.63;97398.59;10359009;28;19975;-68
2022/05/27 23:25:10;;;;;;;14.77;8.02;;;;;;;16.19;79.62;97395.25;10333947;28;20068;-68
2022/05/27 23:30:10;;;;;;;;;;;;;;;16.13;79.54;97395.44;10333429;28;20108;-68
2022/05/27 23:35:08;;;;;;;11.32;7.43;;;;;;;15.64;79.38;97313.91;10334365;28;19963;-68
2022/05/27 23:40:08;;;;;;;;;;;;;;;16.00;79.35;97369.63;10335131;28;20087;-68
2022/05/27 23:45:07;;;;;;;11.73;6.47;;;;;;;15.97;79.25;97369.69;10371923;28;19974;-68
2022/05/27 23:50:06;;;;;;;11.63;6.75;;;;;;;15.92;79.90;97370.72;10374078;28;20056;-68
2022/05/27 23:55:06;;;;;;;12.98;8.13;;;;;;;15.93;80.16;97373.31;10372073;28;20060;-68
